Time;durP1;ratioP1;P1;durP2;ratioP2;P2;SDS_P1;SDS_P2;PMS_P1;PMS_P2;Temp;Humidity;BMP_temperature;BMP_pressure;BME280_temperature;BME280_humidity;BME280_pressure;Samples;Min_cycle;Max_cycle;Signal;HPM_P1;HPM_P2
2022/07/17 00:02:19;;;;;;;4.97;2.35;;;15.10;99.90;;;;;;5063659;28;20087;-64
2022/07/17 00:04:46;;;;;;;5.30;1.73;;;14.90;99.90;;;;;;5070929;28;20507;-62
2022/07/17 00:07:13;;;;;;;4.80;2.33;;;14.90;99.90;;;;;;5073606;28;20040;-62
2022/07/17 00:09:40;;;;;;;4.67;1.90;;;14.90;99.90;;;;;;5069288;28;20082;-64
2022/07/17 00:12:07;;;;;;;3.83;2.17;;;14.90;99.90;;;;;;5069083;28;20329;-64
2022/07/17 00:14:33;;;;;;;3.70;2.10;;;14.90;99.90;;;;;;5069146;28;20032;-64
2022/07/17 00:17:00;;;;;;;4.43;2.25;;;14.80;99.90;;;;;;5054877;28;20047;-63
2022/07/17 00:19:27;;;;;;;3.97;1.88;;;14.80;99.90;;;;;;5072992;28;20513;-63
2022/07/17 00:21:54;;;;;;;3.10;2.13;;;14.80;99.90;;;;;;5069047;28;20041;-63
2022/07/17 00:24:21;;;;;;;3.38;2.10;;;14.80;99.90;;;;;;5061433;28;20052;-63
2022/07/17 00:26:49;;;;;;;2.33;1.88;;;14.80;99.90;;;;;;5069987;28;20051;-63
2022/07/17 00:29:16;;;;;;;4.45;2.05;;;14.80;99.90;;;;;;5051409;28;20075;-63
2022/07/17 00:31:43;;;;;;;;;;;14.80;99.90;;;;;;5070197;28;20412;-63
2022/07/17 00:34:10;;;;;;;3.42;2.08;;;14.70;99.90;;;;;;5072429;28;19924;-63
2022/07/17 00:36:37;;;;;;;4.53;2.55;;;14.70;99.90;;;;;;5073004;28;20048;-63
2022/07/17 00:39:04;;;;;;;2.90;2.13;;;14.70;99.90;;;;;;5072869;28;20127;-63
2022/07/17 00:41:31;;;;;;;4.25;2.05;;;14.60;99.90;;;;;;5065058;28;20045;-63
2022/07/17 00:44:10;;;;;;;3.25;2.20;;;14.60;99.90;;;;;;5071203;28;20497;-63
2022/07/17 00:46:37;;;;;;;3.53;2.10;;;14.50;99.90;;;;;;5072700;28;20048;-63
2022/07/17 00:49:05;;;;;;;3.25;2.00;;;14.50;99.90;;;;;;5063636;28;20400;-63
2022/07/17 00:51:32;;;;;;;;;;;14.50;99.90;;;;;;5071666;28;20496;-65
2022/07/17 00:53:59;;;;;;;3.55;2.10;;;14.40;99.90;;;;;;5065060;28;19921;-64
2022/07/17 00:56:36;;;;;;;4.22;2.10;;;14.40;99.90;;;;;;5070171;28;20044;-63
2022/07/17 00:59:03;;;;;;;2.30;1.77;;;14.40;99.90;;;;;;5068170;28;20493;-64
2022/07/17 01:01:30;;;;;;;4.65;1.92;;;14.40;99.90;;;;;;5067647;28;20044;-64
2022/07/17 01:03:59;;;;;;;4.93;1.90;;;14.30;99.90;;;;;;5067619;28;20064;-64
2022/07/17 01:06:26;;;;;;;2.28;1.95;;;14.30;99.90;;;;;;5070901;28;20063;-64
2022/07/17 01:08:52;;;;;;;2.92;2.00;;;14.30;99.90;;;;;;5057364;28;20041;-64
2022/07/17 01:11:20;;;;;;;6.20;2.30;;;14.30;99.90;;;;;;5071484;28;20043;-64
2022/07/17 01:13:47;;;;;;;2.97;2.22;;;14.30;99.90;;;;;;5071731;28;20412;-64
2022/07/17 01:16:15;;;;;;;5.60;2.10;;;14.20;99.90;;;;;;5071894;28;20051;-64
2022/07/17 01:18:42;;;;;;;3.17;2.08;;;14.20;99.90;;;;;;5061565;28;20040;-64
2022/07/17 01:21:09;;;;;;;2.78;1.90;;;14.10;99.90;;;;;;5063262;28;20048;-64
2022/07/17 01:23:36;;;;;;;2.60;2.10;;;14.10;99.90;;;;;;5070996;28;20036;-64
2022/07/17 01:26:03;;;;;;;7.07;2.15;;;14.00;99.90;;;;;;5071772;28;20064;-64
2022/07/17 01:28:30;;;;;;;5.38;2.72;;;14.00;99.90;;;;;;5064613;28;20522;-64
2022/07/17 01:30:57;;;;;;;3.47;1.95;;;14.00;99.90;;;;;;5066982;28;20040;-64
2022/07/17 01:33:24;;;;;;;5.07;2.40;;;13.90;99.90;;;;;;5071620;28;20044;-64
2022/07/17 01:35:52;;;;;;;4.90;2.10;;;13.90;99.90;;;;;;5061514;28;20044;-64
2022/07/17 01:38:18;;;;;;;;;;;13.80;99.90;;;;;;5063446;28;20040;-64
2022/07/17 01:40:45;;;;;;;3.17;2.33;;;13.80;99.90;;;;;;5070494;28;20296;-65
2022/07/17 01:43:12;;;;;;;3.17;1.88;;;13.80;99.90;;;;;;5071651;28;20052;-64
2022/07/17 01:45:39;;;;;;;3.70;1.95;;;13.80;99.90;;;;;;5063229;28;20049;-64
2022/07/17 01:48:06;;;;;;;2.65;1.90;;;13.80;99.90;;;;;;5071680;28;20040;-64
2022/07/17 01:50:32;;;;;;;3.53;2.15;;;13.90;99.90;;;;;;5070421;28;20044;-64
2022/07/17 01:52:59;;;;;;;2.90;1.80;;;13.90;99.90;;;;;;5062723;28;20509;-64
2022/07/17 01:55:26;;;;;;;5.05;2.20;;;13.90;99.90;;;;;;5063161;28;20036;-64
2022/07/17 01:57:53;;;;;;;10.27;2.10;;;13.90;99.90;;;;;;5070706;28;20044;-64
2022/07/17 02:00:22;;;;;;;5.18;1.85;;;13.90;99.90;;;;;;5084961;28;20386;-64
2022/07/17 02:02:49;;;;;;;4.38;2.60;;;13.90;99.90;;;;;;5091807;28;20400;-64
2022/07/17 02:05:16;;;;;;;7.55;2.35;;;13.80;99.90;;;;;;5091707;28;20048;-64
2022/07/17 02:07:44;;;;;;;4.60;2.58;;;13.70;99.90;;;;;;5079715;28;20044;-64
2022/07/17 02:10:13;;;;;;;5.90;2.53;;;13.60;99.90;;;;;;5091229;28;20050;-64
2022/07/17 02:12:42;;;;;;;2.65;2.13;;;13.50;99.90;;;;;;5091585;28;20176;-65
2022/07/17 02:15:09;;;;;;;4.15;2.58;;;13.40;99.90;;;;;;5086485;28;20043;-65
2022/07/17 02:17:39;;;;;;;4.22;2.20;;;13.30;99.90;;;;;;5076877;28;20052;-64
2022/07/17 02:20:07;;;;;;;3.65;2.22;;;13.30;99.90;;;;;;5058905;28;20060;-64
2022/07/17 02:22:35;;;;;;;2.67;2.28;;;13.40;99.90;;;;;;5051479;28;20060;-64
2022/07/17 02:25:05;;;;;;;6.32;2.10;;;13.40;99.90;;;;;;5078308;28;20439;-64
2022/07/17 02:27:32;;;;;;;4.70;2.00;;;13.50;99.90;;;;;;5086824;28;20075;-64
2022/07/17 02:30:06;;;;;;;;;;;13.50;99.90;;;;;;5091220;28;20078;-64
2022/07/17 02:32:33;;;;;;;3.70;2.20;;;13.60;99.90;;;;;;5085580;28;19924;-64
2022/07/17 02:35:00;;;;;;;6.35;2.20;;;13.60;99.90;;;;;;5081998;28;20051;-64
2022/07/17 02:37:27;;;;;;;4.05;2.05;;;13.60;99.90;;;;;;5091394;28;20508;-64
2022/07/17 02:39:53;;;;;;;2.75;1.85;;;13.60;99.90;;;;;;5090897;28;20047;-64
2022/07/17 02:42:22;;;;;;;3.03;1.95;;;13.60;99.90;;;;;;5077521;28;20086;-64
2022/07/17 02:44:49;;;;;;;2.78;2.10;;;13.60;99.90;;;;;;5062026;28;20052;-65
2022/07/17 02:47:24;;;;;;;4.22;1.70;;;13.60;99.90;;;;;;5064146;28;20048;-64
2022/07/17 02:49:52;;;;;;;6.78;2.10;;;13.60;99.90;;;;;;5065644;28;20044;-64
2022/07/17 02:52:19;;;;;;;5.75;2.25;;;13.60;99.90;;;;;;5059054;28;20072;-64
2022/07/17 02:54:46;;;;;;;2.45;2.00;;;13.50;99.90;;;;;;5068226;28;20040;-64
2022/07/17 02:57:14;;;;;;;3.35;2.47;;;13.50;99.90;;;;;;5075043;28;20093;-64
2022/07/17 02:59:42;;;;;;;6.40;2.20;;;13.50;99.90;;;;;;5082309;28;20079;-64
2022/07/17 03:02:09;;;;;;;3.38;2.35;;;13.50;99.90;;;;;;5090668;28;20082;-64
2022/07/17 03:04:37;;;;;;;2.08;1.83;;;13.50;99.90;;;;;;5088249;28;20050;-64
2022/07/17 03:07:03;;;;;;;;;;;13.50;99.90;;;;;;5082957;28;20115;-64
2022/07/17 03:09:30;;;;;;;2.35;1.70;;;13.50;99.90;;;;;;5090988;28;19924;-64
2022/07/17 03:11:58;;;;;;;3.72;2.00;;;13.40;99.90;;;;;;5092788;28;20036;-65
2022/07/17 03:14:25;;;;;;;4.07;2.05;;;13.40;99.90;;;;;;5089549;28;20040;-64
2022/07/17 03:16:52;;;;;;;4.00;2.78;;;13.40;99.90;;;;;;5086671;28;20047;-64
2022/07/17 03:19:19;;;;;;;3.67;2.67;;;13.30;99.90;;;;;;5095008;28;20684;-64
2022/07/17 03:21:46;;;;;;;3.28;2.25;;;13.10;99.90;;;;;;5090646;28;20048;-64
2022/07/17 03:24:13;;;;;;;3.08;2.47;;;13.00;99.90;;;;;;5086494;28;20051;-64
2022/07/17 03:26:39;;;;;;;3.40;2.80;;;12.90;99.90;;;;;;5094700;28;20048;-64
2022/07/17 03:29:06;;;;;;;3.67;2.65;;;12.90;99.90;;;;;;5094192;28;20056;-65
2022/07/17 03:31:33;;;;;;;4.93;2.40;;;12.90;99.90;;;;;;5082311;28;20052;-64
2022/07/17 03:34:00;;;;;;;3.90;2.15;;;12.90;99.90;;;;;;5094118;28;20049;-64
2022/07/17 03:36:27;;;;;;;4.40;1.88;;;13.00;99.90;;;;;;5094590;28;20044;-64
2022/07/17 03:38:53;;;;;;;4.32;2.15;;;13.00;99.90;;;;;;5084725;28;20047;-64
2022/07/17 03:41:20;;;;;;;8.30;2.28;;;13.10;99.90;;;;;;5085538;28;20442;-64
2022/07/17 03:43:47;;;;;;;4.13;2.00;;;13.10;99.90;;;;;;5094565;28;20047;-64
2022/07/17 03:46:13;;;;;;;2.72;2.22;;;13.20;99.90;;;;;;5091695;28;20537;-64
2022/07/17 03:48:40;;;;;;;2.53;1.92;;;13.20;99.90;;;;;;5086074;28;20477;-64
2022/07/17 03:51:07;;;;;;;3.28;2.13;;;13.30;99.90;;;;;;5094091;28;20052;-64
2022/07/17 03:53:34;;;;;;;4.35;2.30;;;13.30;99.90;;;;;;5088384;28;20045;-64
2022/07/17 03:56:00;;;;;;;6.60;2.57;;;13.30;99.90;;;;;;5085166;28;20101;-64
2022/07/17 03:58:27;;;;;;;2.63;2.35;;;13.30;99.90;;;;;;5094337;28;20758;-64
2022/07/17 04:00:54;;;;;;;3.30;1.83;;;13.30;99.90;;;;;;5093735;28;20075;-64
2022/07/17 04:03:21;;;;;;;2.17;1.63;;;13.30;99.90;;;;;;5086277;28;20056;-64
2022/07/17 04:05:48;;;;;;;4.30;2.05;;;13.30;99.90;;;;;;5091999;28;20063;-65
2022/07/17 04:08:15;;;;;;;5.95;2.45;;;13.30;99.90;;;;;;5093939;28;20055;-65
2022/07/17 04:10:42;;;;;;;6.30;2.45;;;13.30;99.90;;;;;;5093573;28;20048;-64
2022/07/17 04:13:08;;;;;;;5.25;2.30;;;13.30;99.90;;;;;;5082414;28;20093;-64
2022/07/17 04:15:56;;;;;;;4.78;2.40;;;13.30;99.90;;;;;;5089964;28;20054;-65
2022/07/17 04:18:25;;;;;;;5.50;2.50;;;13.30;99.90;;;;;;5093967;28;20097;-64
2022/07/17 04:20:53;;;;;;;4.35;1.90;;;13.30;99.90;;;;;;5082445;28;20040;-64
2022/07/17 04:23:20;;;;;;;4.85;1.92;;;13.30;99.90;;;;;;5087582;28;20058;-64
2022/07/17 04:25:47;;;;;;;3.70;1.60;;;13.10;99.90;;;;;;5093999;28;20051;-64
2022/07/17 04:28:15;;;;;;;2.83;2.00;;;13.30;99.90;;;;;;5093873;28;20048;-64
2022/07/17 04:30:41;;;;;;;;;;;13.30;99.90;;;;;;5081847;22;20052;-62
2022/07/17 04:33:08;;;;;;;2.42;1.95;;;13.30;99.90;;;;;;5072805;28;20308;-62
2022/07/17 04:35:35;;;;;;;6.05;2.60;;;13.40;99.90;;;;;;5073103;28;20044;-62
2022/07/17 04:38:04;;;;;;;6.30;3.03;;;13.40;99.90;;;;;;5073393;28;20059;-62
2022/07/17 04:40:34;;;;;;;5.60;3.10;;;13.50;99.90;;;;;;5074895;28;20404;-62
2022/07/17 04:43:01;;;;;;;8.05;3.60;;;13.50;99.90;;;;;;5066931;28;20412;-62
2022/07/17 04:45:28;;;;;;;6.03;3.33;;;13.60;99.90;;;;;;5093417;28;20052;-63
2022/07/17 04:47:56;;;;;;;5.53;3.75;;;13.60;99.90;;;;;;5093327;28;20048;-62
2022/07/17 04:50:23;;;;;;;5.85;3.80;;;13.70;99.90;;;;;;5079354;28;20044;-62
2022/07/17 04:52:50;;;;;;;5.22;3.60;;;13.70;99.90;;;;;;5091151;28;20376;-62
2022/07/17 04:55:17;;;;;;;5.22;3.55;;;13.80;99.90;;;;;;5093072;28;20048;-63
2022/07/17 04:57:44;;;;;;;9.40;3.60;;;13.90;99.90;;;;;;5077148;28;20041;-62
2022/07/17 05:00:12;;;;;;;7.68;4.25;;;13.90;99.90;;;;;;5084174;28;20356;-62
2022/07/17 05:02:38;;;;;;;9.77;4.30;;;13.90;99.90;;;;;;5076854;28;20571;-62
2022/07/17 05:05:06;;;;;;;9.50;4.43;;;14.00;99.90;;;;;;5061872;28;20051;-62
2022/07/17 05:07:32;;;;;;;7.40;3.90;;;14.00;99.90;;;;;;5066595;28;20047;-63
2022/07/17 05:09:59;;;;;;;8.07;3.95;;;14.00;99.90;;;;;;5065062;28;20120;-62
2022/07/17 05:12:26;;;;;;;5.78;3.55;;;14.20;99.90;;;;;;5065129;28;20501;-63
2022/07/17 05:14:53;;;;;;;8.52;4.05;;;14.50;99.90;;;;;;5069063;28;20041;-62
2022/07/17 05:17:20;;;;;;;8.77;4.32;;;14.40;99.90;;;;;;5049372;28;20050;-63
2022/07/17 05:19:47;;;;;;;5.72;4.10;;;14.40;99.90;;;;;;5092441;28;20052;-63
2022/07/17 05:22:14;;;;;;;6.75;4.05;;;14.40;99.90;;;;;;5052726;28;20048;-62
2022/07/17 05:24:42;;;;;;;7.40;4.43;;;14.30;99.90;;;;;;5077529;28;20465;-62
2022/07/17 05:27:09;;;;;;;6.55;4.30;;;14.40;99.90;;;;;;5092066;28;20052;-62
2022/07/17 05:29:36;;;;;;;6.18;3.63;;;14.40;99.90;;;;;;5092054;28;20071;-62
2022/07/17 05:32:03;;;;;;;7.28;3.63;;;14.60;99.90;;;;;;5080129;28;20047;-62
2022/07/17 05:34:30;;;;;;;6.65;3.90;;;14.60;99.90;;;;;;5074995;28;20045;-62
2022/07/17 05:36:57;;;;;;;5.93;3.78;;;14.60;99.90;;;;;;5072027;28;20037;-62
2022/07/17 05:39:23;;;;;;;7.28;3.72;;;14.60;99.90;;;;;;5065476;28;20045;-62
2022/07/17 05:41:50;;;;;;;7.88;4.10;;;14.70;99.90;;;;;;5079154;28;20033;-62
2022/07/17 05:44:17;;;;;;;4.13;3.33;;;14.70;99.90;;;;;;5091969;28;20401;-62
2022/07/17 05:46:44;;;;;;;5.30;3.50;;;14.80;99.90;;;;;;5088944;28;20040;-62
2022/07/17 05:49:11;;;;;;;6.70;4.10;;;14.80;99.90;;;;;;5083384;28;20105;-63
2022/07/17 05:51:37;;;;;;;5.32;3.55;;;14.90;99.90;;;;;;5091691;28;20063;-62
2022/07/17 05:54:04;;;;;;;4.93;3.35;;;14.90;99.90;;;;;;5091853;28;20058;-62
2022/07/17 05:56:31;;;;;;;6.88;3.67;;;14.90;99.90;;;;;;5077724;28;20044;-63
2022/07/17 05:58:58;;;;;;;7.95;4.13;;;15.00;99.90;;;;;;5072736;28;20055;-62
2022/07/17 06:01:24;;;;;;;6.38;4.00;;;15.10;99.90;;;;;;5091592;28;20036;-62
2022/07/17 06:03:52;;;;;;;6.28;3.95;;;15.10;99.90;;;;;;5075159;28;20055;-62
2022/07/17 06:06:19;;;;;;;6.72;3.40;;;15.20;99.90;;;;;;5085481;28;20047;-62
2022/07/17 06:08:46;;;;;;;7.18;3.80;;;15.30;99.90;;;;;;5091751;28;20079;-62
2022/07/17 06:11:13;;;;;;;8.02;3.88;;;15.30;99.90;;;;;;5090919;28;20446;-63
2022/07/17 06:13:39;;;;;;;8.95;4.00;;;15.40;99.90;;;;;;5077075;28;20113;-62
2022/07/17 06:16:06;;;;;;;8.50;3.90;;;15.40;99.90;;;;;;5091473;28;20036;-62
2022/07/17 06:18:33;;;;;;;6.68;4.15;;;15.60;99.90;;;;;;5091503;28;20039;-63
2022/07/17 06:21:00;;;;;;;6.07;4.07;;;15.70;99.90;;;;;;5077676;28;20044;-62
2022/07/17 06:23:27;;;;;;;5.07;3.80;;;15.60;99.90;;;;;;5083059;28;20040;-63
2022/07/17 06:25:54;;;;;;;5.50;3.85;;;15.80;99.90;;;;;;5091169;28;20419;-63
2022/07/17 06:28:20;;;;;;;5.57;3.90;;;15.80;99.90;;;;;;5088352;28;20052;-62
2022/07/17 06:30:48;;;;;;;17.13;9.60;;;16.00;99.90;;;;;;5082414;28;20048;-62
2022/07/17 06:33:15;;;;;;;5.50;3.60;;;16.10;99.90;;;;;;5091459;28;20048;-62
2022/07/17 06:35:42;;;;;;;6.10;3.50;;;16.20;99.90;;;;;;5082877;28;20057;-62
2022/07/17 06:38:11;;;;;;;8.73;3.78;;;16.30;99.90;;;;;;5062606;28;20122;-63
2022/07/17 06:40:38;;;;;;;7.00;3.83;;;16.30;99.90;;;;;;5064605;28;20387;-62
2022/07/17 06:43:06;;;;;;;5.93;3.92;;;16.40;99.90;;;;;;5059986;28;20067;-62
2022/07/17 06:45:34;;;;;;;9.60;3.83;;;16.60;99.90;;;;;;5059794;28;20061;-62
2022/07/17 06:48:00;;;;;;;;;;;16.70;99.90;;;;;;5069048;28;20377;-63
2022/07/17 06:50:27;;;;;;;7.50;3.45;;;16.90;99.90;;;;;;5058604;28;19920;-62
2022/07/17 06:52:54;;;;;;;5.93;3.50;;;17.10;99.90;;;;;;5031234;28;20310;-62
2022/07/17 06:55:21;;;;;;;5.97;3.25;;;17.30;99.90;;;;;;5044658;28;20635;-62
2022/07/17 06:57:48;;;;;;;5.65;3.33;;;17.40;99.90;;;;;;5060416;28;20509;-62
2022/07/17 07:00:17;;;;;;;5.05;3.63;;;17.60;99.90;;;;;;5048876;28;20047;-62
2022/07/17 07:02:44;;;;;;;8.65;3.60;;;17.60;99.90;;;;;;5063643;28;20146;-62
2022/07/17 07:05:11;;;;;;;4.15;3.10;;;17.70;99.90;;;;;;5066648;28;20042;-62
2022/07/17 07:07:38;;;;;;;6.05;3.42;;;17.90;99.90;;;;;;5079622;28;20053;-62
2022/07/17 07:10:05;;;;;;;5.22;3.03;;;18.10;99.90;;;;;;5065477;28;20052;-62
2022/07/17 07:12:32;;;;;;;5.90;3.20;;;18.30;99.90;;;;;;5067849;28;20048;-62
2022/07/17 07:14:59;;;;;;;4.25;3.33;;;18.40;99.90;;;;;;5066000;28;20041;-63
2022/07/17 07:17:26;;;;;;;4.45;3.05;;;18.50;99.90;;;;;;5082888;28;20041;-63
2022/07/17 07:19:53;;;;;;;5.05;3.35;;;18.60;99.90;;;;;;5073501;28;20048;-63
2022/07/17 07:22:20;;;;;;;4.80;2.78;;;18.70;99.90;;;;;;5064479;28;20672;-62
2022/07/17 07:24:46;;;;;;;4.65;3.15;;;18.70;99.90;;;;;;5058588;28;20428;-63
2022/07/17 07:27:13;;;;;;;4.53;2.88;;;18.80;99.90;;;;;;5083087;28;20051;-63
2022/07/17 07:29:40;;;;;;;4.75;2.90;;;18.90;99.90;;;;;;5050373;28;20039;-63
2022/07/17 07:32:07;;;;;;;4.75;3.10;;;19.10;99.90;;;;;;5070801;28;20547;-63
2022/07/17 07:34:34;;;;;;;3.47;2.50;;;19.10;99.90;;;;;;5073637;28;20040;-63
2022/07/17 07:37:00;;;;;;;4.32;2.90;;;19.10;99.90;;;;;;5076470;28;20051;-63
2022/07/17 07:39:27;;;;;;;5.40;2.60;;;19.20;99.90;;;;;;5054202;28;20048;-63
2022/07/17 07:41:54;;;;;;;3.47;3.10;;;19.30;99.90;;;;;;5057702;28;20040;-63
2022/07/17 07:44:21;;;;;;;4.30;3.00;;;19.30;99.90;;;;;;5071635;28;20044;-63
2022/07/17 07:46:57;;;;;;;3.78;2.88;;;19.40;99.90;;;;;;5054112;28;20048;-63
2022/07/17 07:49:24;;;;;;;8.75;3.00;;;19.50;99.90;;;;;;5043251;28;20044;-63
2022/07/17 07:51:51;;;;;;;4.05;2.75;;;19.70;99.90;;;;;;5065873;28;20048;-63
2022/07/17 07:54:29;;;;;;;4.53;2.70;;;19.70;99.90;;;;;;5072679;28;20045;-63
2022/07/17 07:56:56;;;;;;;3.58;2.55;;;19.90;99.90;;;;;;5070545;28;20050;-63
2022/07/17 07:59:23;;;;;;;4.20;2.70;;;20.00;99.90;;;;;;5073791;28;20397;-63
2022/07/17 08:01:49;;;;;;;2.88;2.33;;;20.10;99.90;;;;;;5076793;28;20040;-63
2022/07/17 08:04:16;;;;;;;3.65;2.42;;;20.30;99.90;;;;;;5087147;28;20115;-63
2022/07/17 08:06:43;;;;;;;6.15;2.75;;;20.40;99.90;;;;;;5093647;28;20062;-63
2022/07/17 08:09:10;;;;;;;3.58;2.83;;;20.40;99.90;;;;;;5098559;22;20043;-63
2022/07/17 08:11:37;;;;;;;4.28;2.22;;;20.50;99.90;;;;;;5072002;28;20041;-63
2022/07/17 08:14:03;;;;;;;3.97;2.70;;;20.60;99.90;;;;;;5073579;28;20048;-63
2022/07/17 08:16:40;;;;;;;5.38;2.75;;;20.80;99.90;;;;;;5065372;28;20467;-63
2022/07/17 08:19:07;;;;;;;5.47;2.22;;;20.90;99.90;;;;;;5057927;28;20036;-63
2022/07/17 08:21:34;;;;;;;;;;;20.80;99.90;;;;;;5065790;28;20043;-63
2022/07/17 08:24:01;;;;;;;3.63;2.30;;;20.70;99.90;;;;;;5073489;28;19921;-63
2022/07/17 08:26:28;;;;;;;5.53;2.40;;;20.70;99.90;;;;;;5062015;28;20397;-63
2022/07/17 08:28:55;;;;;;;8.13;2.50;;;20.70;99.90;;;;;;5049342;28;20036;-63
2022/07/17 08:31:22;;;;;;;2.53;1.95;;;20.80;99.90;;;;;;5069719;28;20063;-63
2022/07/17 08:33:49;;;;;;;3.95;2.42;;;20.90;99.90;;;;;;5069083;28;20573;-63
2022/07/17 08:36:15;;;;;;;5.35;2.15;;;21.00;99.90;;;;;;5069494;28;20044;-63
2022/07/17 08:38:42;;;;;;;4.80;2.60;;;21.30;99.90;;;;;;5072391;28;20048;-63
2022/07/17 08:41:15;;;;;;;4.30;2.50;;;21.40;99.90;;;;;;5072016;28;20486;-63
2022/07/17 08:43:43;;;;;;;3.70;2.33;;;21.50;99.90;;;;;;5055610;28;20374;-63
2022/07/17 08:46:11;;;;;;;3.72;2.30;;;21.50;99.90;;;;;;5054549;28;20037;-64
2022/07/17 08:48:41;;;;;;;5.50;2.78;;;21.60;99.90;;;;;;5072430;28;20561;-63
2022/07/17 08:51:08;;;;;;;2.88;2.35;;;21.70;99.90;;;;;;5069959;28;20050;-63
2022/07/17 08:53:35;;;;;;;3.63;2.60;;;21.80;99.90;;;;;;5054268;28;20425;-63
2022/07/17 08:56:02;;;;;;;4.18;2.50;;;21.80;99.90;;;;;;5072367;28;20048;-63
2022/07/17 08:58:30;;;;;;;5.00;2.80;;;21.80;99.90;;;;;;5072117;28;20138;-63
2022/07/17 09:00:57;;;;;;;3.92;2.58;;;21.90;99.90;;;;;;5069736;28;20043;-63
2022/07/17 09:03:24;;;;;;;3.63;2.55;;;21.90;99.90;;;;;;5071964;28;20041;-64
2022/07/17 09:05:51;;;;;;;5.35;3.00;;;22.00;99.90;;;;;;5058772;28;20049;-64
2022/07/17 09:08:20;;;;;;;5.10;2.50;;;22.10;99.90;;;;;;5069914;28;20056;-63
2022/07/17 09:10:51;;;;;;;4.60;2.67;;;22.20;99.90;;;;;;5070491;28;20493;-64
2022/07/17 09:13:20;;;;;;;5.50;2.45;;;22.30;99.90;;;;;;5055515;28;20128;-64
2022/07/17 09:15:48;;;;;;;2.72;2.13;;;22.30;99.90;;;;;;5071550;28;20079;-64
2022/07/17 09:18:15;;;;;;;3.72;2.15;;;22.40;99.90;;;;;;5068639;28;20052;-64
2022/07/17 09:20:52;;;;;;;3.42;2.22;;;22.40;99.90;;;;;;5071177;28;20041;-64
2022/07/17 09:23:21;;;;;;;4.78;2.45;;;22.60;99.90;;;;;;5071636;28;20403;-64
2022/07/17 09:25:52;;;;;;;4.35;2.63;;;22.60;99.90;;;;;;5068658;28;20098;-64
2022/07/17 09:28:20;;;;;;;2.80;2.50;;;22.70;99.90;;;;;;5071557;28;20067;-64
2022/07/17 09:30:51;;;;;;;7.45;2.70;;;22.90;99.90;;;;;;5071186;28;20487;-65
2022/07/17 09:33:21;;;;;;;5.88;2.85;;;22.90;99.90;;;;;;5071908;28;20056;-64
2022/07/17 09:35:51;;;;;;;4.72;2.45;;;23.00;99.90;;;;;;5065892;28;20048;-64
2022/07/17 09:38:38;;;;;;;5.30;2.15;;;22.90;99.90;;;;;;5071555;28;20119;-64
2022/07/17 09:41:12;;;;;;;3.83;2.17;;;23.00;99.90;;;;;;5062655;28;20052;-64
2022/07/17 09:43:52;;;;;;;6.28;2.17;;;23.00;99.90;;;;;;5071332;28;20086;-65
2022/07/17 09:46:23;;;;;;;3.03;2.17;;;23.00;99.90;;;;;;5065652;28;20048;-64
2022/07/17 09:48:59;;;;;;;6.10;2.20;;;23.00;99.90;;;;;;5071474;28;20523;-64
2022/07/17 09:51:29;;;;;;;4.72;2.35;;;23.00;99.90;;;;;;5071345;28;20051;-64
2022/07/17 09:53:58;;;;;;;4.90;1.95;;;23.20;99.90;;;;;;5069864;28;20055;-64
2022/07/17 09:56:28;;;;;;;10.48;3.08;;;23.10;99.90;;;;;;5071422;28;20055;-64
2022/07/17 09:59:06;;;;;;;3.95;2.10;;;23.10;99.90;;;;;;5071640;28;20044;-64
2022/07/17 10:01:34;;;;;;;6.00;2.65;;;23.20;99.90;;;;;;5065483;28;20045;-65
2022/07/17 10:04:02;;;;;;;4.50;2.28;;;23.20;99.90;;;;;;5065287;28;20070;-64
2022/07/17 10:06:30;;;;;;;3.22;2.10;;;23.30;99.90;;;;;;5071298;28;20041;-64
2022/07/17 10:08:59;;;;;;;2.60;2.10;;;23.40;99.90;;;;;;5069769;28;20049;-64
2022/07/17 10:11:30;;;;;;;3.85;2.67;;;23.40;99.90;;;;;;5070735;28;20043;-64
2022/07/17 10:14:04;;;;;;;5.93;2.13;;;23.40;99.90;;;;;;5071298;28;20044;-64
2022/07/17 10:16:32;;;;;;;5.40;2.22;;;23.50;99.90;;;;;;5071295;28;20041;-64
2022/07/17 10:19:02;;;;;;;4.22;2.15;;;23.50;99.90;;;;;;5067163;28;20040;-64
2022/07/17 10:21:31;;;;;;;3.83;2.10;;;23.60;99.90;;;;;;5070639;28;20124;-64
2022/07/17 10:23:58;;;;;;;5.05;1.95;;;23.60;99.90;;;;;;5071049;28;20527;-64
2022/07/17 10:26:38;;;;;;;2.83;1.88;;;23.80;99.90;;;;;;5065207;28;20045;-64
2022/07/17 10:29:27;;;;;;;2.20;2.00;;;23.80;99.90;;;;;;5066724;28;20032;-64
2022/07/17 10:31:55;;;;;;;5.88;2.03;;;23.80;98.70;;;;;;5085616;22;20127;-62
2022/07/17 10:34:40;;;;;;;;;;;23.70;98.90;;;;;;5069702;28;20062;-62
2022/07/17 10:37:20;;;;;;;5.80;2.20;;;23.90;99.90;;;;;;5070195;28;19924;-62
2022/07/17 10:39:56;;;;;;;4.10;2.17;;;23.90;99.50;;;;;;5070560;28;20067;-62
2022/07/17 10:42:45;;;;;;;3.72;2.13;;;24.00;99.80;;;;;;5068352;28;20049;-62
2022/07/17 10:45:34;;;;;;;6.07;1.80;;;24.00;99.70;;;;;;5051458;28;20041;-62
2022/07/17 10:48:21;;;;;;;2.90;1.95;;;24.10;99.10;;;;;;5064154;28;20075;-60
2022/07/17 10:50:48;;;;;;;2.70;1.98;;;24.10;98.30;;;;;;5070199;28;20048;-61
2022/07/17 10:53:17;;;;;;;2.22;1.60;;;24.20;97.80;;;;;;5068170;28;20044;-62
2022/07/17 10:56:06;;;;;;;3.65;1.80;;;24.30;97.70;;;;;;5069338;28;20386;-62
2022/07/17 10:58:34;;;;;;;2.30;1.85;;;24.30;97.00;;;;;;5066602;28;20052;-62
2022/07/17 11:01:15;;;;;;;1.88;1.77;;;24.30;97.60;;;;;;5067409;28;20138;-62
2022/07/17 11:03:51;;;;;;;3.28;1.90;;;24.30;96.40;;;;;;5052665;28;20412;-62
2022/07/17 11:06:25;;;;;;;2.45;1.90;;;24.30;97.20;;;;;;5070614;28;20044;-62
2022/07/17 11:09:01;;;;;;;3.63;2.00;;;24.40;97.90;;;;;;5066949;28;20056;-62
2022/07/17 11:11:43;;;;;;;2.47;1.75;;;24.50;97.80;;;;;;5070154;28;20060;-62
2022/07/17 11:14:17;;;;;;;2.63;1.70;;;24.50;96.70;;;;;;5066398;28;20051;-60
2022/07/17 11:16:49;;;;;;;1.95;1.65;;;24.50;95.90;;;;;;5067872;28;20037;-60
2022/07/17 11:19:27;;;;;;;2.65;1.70;;;24.60;96.50;;;;;;5070583;28;20045;-60
2022/07/17 11:21:57;;;;;;;3.60;1.98;;;24.60;93.90;;;;;;5066976;28;20041;-58
2022/07/17 11:24:26;;;;;;;2.05;1.42;;;24.50;94.30;;;;;;5070601;28;20045;-59
2022/07/17 11:26:52;;;;;;;5.60;1.70;;;24.60;94.80;;;;;;5066716;28;20040;-59
2022/07/17 11:29:20;;;;;;;2.30;1.77;;;24.60;94.40;;;;;;5070592;28;20045;-60
2022/07/17 11:31:54;;;;;;;5.78;1.75;;;24.60;95.20;;;;;;5070069;28;20051;-59
2022/07/17 11:34:24;;;;;;;3.40;1.60;;;24.70;94.00;;;;;;5068089;28;20051;-61
2022/07/17 11:37:02;;;;;;;2.72;2.05;;;24.70;95.10;;;;;;5073145;28;20072;-61
2022/07/17 11:39:47;;;;;;;2.70;1.83;;;24.70;93.50;;;;;;5069275;28;20412;-61
2022/07/17 11:42:16;;;;;;;2.83;2.50;;;24.80;95.40;;;;;;5068749;28;20040;-62
2022/07/17 11:44:43;;;;;;;3.35;1.80;;;24.90;95.30;;;;;;5065554;28;20435;-60
2022/07/17 11:47:12;;;;;;;2.80;1.88;;;24.80;94.20;;;;;;5069734;28;20060;-62
2022/07/17 11:49:40;;;;;;;3.88;1.90;;;24.90;94.10;;;;;;5064465;28;20036;-62
2022/07/17 11:52:12;;;;;;;2.35;1.50;;;24.80;94.20;;;;;;5062170;28;20052;-62
2022/07/17 11:54:54;;;;;;;3.90;2.10;;;24.90;94.10;;;;;;5072719;28;20086;-62
2022/07/17 11:57:22;;;;;;;2.65;1.90;;;25.00;94.20;;;;;;5068551;28;20041;-62
2022/07/17 11:59:52;;;;;;;4.35;2.22;;;25.10;94.90;;;;;;5071594;28;20067;-62
2022/07/17 12:02:22;;;;;;;3.00;1.90;;;25.20;95.40;;;;;;5073922;28;20428;-62
2022/07/17 12:04:56;;;;;;;2.25;1.77;;;25.30;95.20;;;;;;5071630;28;20045;-62
2022/07/17 12:07:26;;;;;;;2.95;1.70;;;25.30;93.30;;;;;;5073566;28;20052;-63
2022/07/17 12:09:54;;;;;;;2.47;1.90;;;25.30;93.60;;;;;;5072529;28;20048;-63
2022/07/17 12:12:26;;;;;;;4.97;1.90;;;25.30;93.50;;;;;;5073463;28;20056;-62
2022/07/17 12:14:59;;;;;;;3.92;2.05;;;25.30;93.40;;;;;;5070649;28;20052;-62
2022/07/17 12:17:40;;;;;;;2.67;1.70;;;25.30;93.40;;;;;;5067745;28;20036;-62
2022/07/17 12:20:08;;;;;;;3.85;2.00;;;25.30;93.70;;;;;;5070099;28;20044;-62
2022/07/17 12:22:46;;;;;;;4.40;2.13;;;25.50;94.10;;;;;;5072270;28;20051;-62
2022/07/17 12:25:26;;;;;;;4.30;1.90;;;25.60;92.40;;;;;;5073323;28;20055;-62
2022/07/17 12:27:53;;;;;;;2.55;2.00;;;25.60;93.70;;;;;;5071656;28;20036;-63
2022/07/17 12:30:20;;;;;;;;;;;25.70;92.40;;;;;;5073027;28;20622;-62
2022/07/17 12:32:47;;;;;;;2.50;1.83;;;25.70;93.40;;;;;;5071608;28;19927;-62
2022/07/17 12:35:15;;;;;;;;;;;25.70;94.10;;;;;;5053925;28;20492;-62
2022/07/17 12:37:42;;;;;;;;;;;25.80;93.50;;;;;;5073171;28;19920;-58
2022/07/17 12:40:10;;;;;;;4.32;2.10;;;25.70;92.60;;;;;;5070607;28;19924;-62
2022/07/17 12:42:42;;;;;;;3.28;1.80;;;25.80;92.00;;;;;;5072554;28;20052;-63
2022/07/17 12:45:10;;;;;;;3.78;1.92;;;25.80;92.60;;;;;;5070970;28;20033;-63
2022/07/17 12:47:37;;;;;;;4.38;2.03;;;25.80;92.60;;;;;;5064865;28;20036;-62
2022/07/17 12:50:04;;;;;;;3.20;2.33;;;25.80;93.00;;;;;;5068708;28;20080;-62
2022/07/17 12:52:32;;;;;;;3.92;2.60;;;25.80;93.40;;;;;;5072154;28;20489;-62
2022/07/17 12:54:59;;;;;;;4.30;2.13;;;25.80;93.80;;;;;;5070786;28;20048;-62
2022/07/17 12:57:26;;;;;;;3.33;2.13;;;25.90;92.40;;;;;;5071771;28;20040;-63
2022/07/17 12:59:53;;;;;;;4.70;1.90;;;25.90;92.20;;;;;;5071493;28;20041;-64